sensor_id;sensor_type;location;lat;lon;timestamp;pressure;altitude;pressure_sealevel;temperature;humidity
64739;BME280;51175;51.186;0.276;2024-02-26T00:00:20;99079.25;;;6.73;100.00
64739;BME280;51175;51.186;0.276;2024-02-26T00:00:51;99097.63;;;6.73;100.00
64739;BME280;51175;51.186;0.276;2024-02-26T00:01:21;99104.44;;;6.74;100.00
64739;BME280;51175;51.186;0.276;2024-02-26T00:01:52;99105.50;;;6.73;100.00
64739;BME280;51175;51.186;0.276;2024-02-26T00:02:22;99107.88;;;6.75;100.00
64739;BME280;51175;51.186;0.276;2024-02-26T00:02:59;99101.81;;;6.74;100.00
64739;BME280;51175;51.186;0.276;2024-02-26T00:03:29;99093.16;;;6.74;100.00
64739;BME280;51175;51.186;0.276;2024-02-26T00:04:00;99104.16;;;6.76;100.00
64739;BME280;51175;51.186;0.276;2024-02-26T00:04:32;99103.38;;;6.75;100.00
64739;BME280;51175;51.186;0.276;2024-02-26T00:05:04;99101.53;;;6.76;100.00
64739;BME280;51175;51.186;0.276;2024-02-26T00:05:35;99099.72;;;6.76;100.00
64739;BME280;51175;51.186;0.276;2024-02-26T00:06:05;99107.88;;;6.75;100.00
64739;BME280;51175;51.186;0.276;2024-02-26T00:06:36;99104.16;;;6.76;100.00
64739;BME280;51175;51.186;0.276;2024-02-26T00:07:07;99112.03;;;6.76;100.00
64739;BME280;51175;51.186;0.276;2024-02-26T00:07:43;99106.53;;;6.77;100.00
64739;BME280;51175;51.186;0.276;2024-02-26T00:08:14;99110.72;;;6.78;100.00
64739;BME280;51175;51.186;0.276;2024-02-26T00:08:47;99107.31;;;6.78;100.00
64739;BME280;51175;51.186;0.276;2024-02-26T00:09:20;99115.97;;;6.78;100.00
64739;BME280;51175;51.186;0.276;2024-02-26T00:09:50;99111.50;;;6.79;100.00
64739;BME280;51175;51.186;0.276;2024-02-26T00:10:25;99111.50;;;6.79;100.00
64739;BME280;51175;51.186;0.276;2024-02-26T00:10:58;99121.22;;;6.78;100.00
64739;BME280;51175;51.186;0.276;2024-02-26T00:11:30;99123.84;;;6.78;100.00
64739;BME280;51175;51.186;0.276;2024-02-26T00:12:01;99115.97;;;6.78;100.00
64739;BME280;51175;51.186;0.276;2024-02-26T00:12:31;99114.66;;;6.76;100.00
64739;BME280;51175;51.186;0.276;2024-02-26T00:13:01;99123.34;;;6.76;100.00
64739;BME280;51175;51.186;0.276;2024-02-26T00:13:32;99112.03;;;6.76;100.00
64739;BME280;51175;51.186;0.276;2024-02-26T00:14:03;99107.88;;;6.75;100.00
64739;BME280;51175;51.186;0.276;2024-02-26T00:14:33;99117.28;;;6.76;100.00
64739;BME280;51175;51.186;0.276;2024-02-26T00:15:04;99110.97;;;6.77;100.00
64739;BME280;51175;51.186;0.276;2024-02-26T00:15:35;99112.84;;;6.76;100.00
64739;BME280;51175;51.186;0.276;2024-02-26T00:16:06;99117.81;;;6.78;100.00
64739;BME280;51175;51.186;0.276;2024-02-26T00:16:42;99123.06;;;6.78;100.00
64739;BME280;51175;51.186;0.276;2024-02-26T00:17:15;99108.88;;;6.79;100.00
64739;BME280;51175;51.186;0.276;2024-02-26T00:17:45;99126.47;;;6.78;100.00
64739;BME280;51175;51.186;0.276;2024-02-26T00:18:16;99118.59;;;6.78;100.00
64739;BME280;51175;51.186;0.276;2024-02-26T00:18:46;99111.50;;;6.79;100.00
64739;BME280;51175;51.186;0.276;2024-02-26T00:19:17;99114.13;;;6.79;100.00
64739;BME280;51175;51.186;0.276;2024-02-26T00:19:50;99116.50;;;6.80;100.00
64739;BME280;51175;51.186;0.276;2024-02-26T00:20:21;99138.81;;;6.78;100.00
64739;BME280;51175;51.186;0.276;2024-02-26T00:20:51;99115.19;;;6.78;100.00
64739;BME280;51175;51.186;0.276;2024-02-26T00:21:22;99135.41;;;6.77;100.00
64739;BME280;51175;51.186;0.276;2024-02-26T00:21:52;99125.44;;;6.79;100.00
64739;BME280;51175;51.186;0.276;2024-02-26T00:22:26;99120.44;;;6.78;100.00
64739;BME280;51175;51.186;0.276;2024-02-26T00:22:57;99139.59;;;6.78;100.00
64739;BME280;51175;51.186;0.276;2024-02-26T00:23:30;99128.31;;;6.78;100.00
64739;BME280;51175;51.186;0.276;2024-02-26T00:24:01;99131.22;;;6.76;100.00
64739;BME280;51175;51.186;0.276;2024-02-26T00:24:32;99122.00;;;6.79;100.00
64739;BME280;51175;51.186;0.276;2024-02-26T00:25:03;99162.44;;;6.78;100.00
64739;BME280;51175;51.186;0.276;2024-02-26T00:25:33;99127.53;;;6.77;100.00
64739;BME280;51175;51.186;0.276;2024-02-26T00:26:07;99123.06;;;6.78;100.00
64739;BME280;51175;51.186;0.276;2024-02-26T00:26:41;99120.72;;;6.76;100.00
64739;BME280;51175;51.186;0.276;2024-02-26T00:27:11;99128.06;;;6.79;100.00
64739;BME280;51175;51.186;0.276;2024-02-26T00:27:44;99142.22;;;6.78;100.00
64739;BME280;51175;51.186;0.276;2024-02-26T00:28:15;99122.28;;;6.77;100.00
64739;BME280;51175;51.186;0.276;2024-02-26T00:28:45;99129.09;;;6.78;100.00
64739;BME280;51175;51.186;0.276;2024-02-26T00:29:19;99130.69;;;6.79;100.00
64739;BME280;51175;51.186;0.276;2024-02-26T00:29:49;99122.00;;;6.79;100.00
64739;BME280;51175;51.186;0.276;2024-02-26T00:30:20;99136.19;;;6.78;100.00
64739;BME280;51175;51.186;0.276;2024-02-26T00:30:51;99135.13;;;6.79;100.00
64739;BME280;51175;51.186;0.276;2024-02-26T00:31:26;99136.19;;;6.78;100.00
64739;BME280;51175;51.186;0.276;2024-02-26T00:31:56;99133.56;;;6.78;100.00
64739;BME280;51175;51.186;0.276;2024-02-26T00:32:27;99130.94;;;6.78;100.00
64739;BME280;51175;51.186;0.276;2024-02-26T00:32:57;99123.84;;;6.78;100.00
64739;BME280;51175;51.186;0.276;2024-02-26T00:33:28;99128.31;;;6.78;100.00
64739;BME280;51175;51.186;0.276;2024-02-26T00:34:04;99129.34;;;6.77;100.00
64739;BME280;51175;51.186;0.276;2024-02-26T00:34:36;99127.25;;;6.79;100.00
64739;BME280;51175;51.186;0.276;2024-02-26T00:35:07;99124.63;;;6.79;100.00
64739;BME280;51175;51.186;0.276;2024-02-26T00:35:39;99123.06;;;6.78;100.00
64739;BME280;51175;51.186;0.276;2024-02-26T00:36:10;99121.47;;;6.77;100.00
64739;BME280;51175;51.186;0.276;2024-02-26T00:36:43;99130.16;;;6.77;100.00
64739;BME280;51175;51.186;0.276;2024-02-26T00:37:13;99138.03;;;6.77;100.00
64739;BME280;51175;51.186;0.276;2024-02-26T00:37:47;99133.56;;;6.78;100.00
64739;BME280;51175;51.186;0.276;2024-02-26T00:38:17;99139.84;;;6.77;100.00
64739;BME280;51175;51.186;0.276;2024-02-26T00:38:48;99124.09;;;6.77;100.00
64739;BME280;51175;51.186;0.276;2024-02-26T00:39:21;99132.78;;;6.77;100.00
64739;BME280;51175;51.186;0.276;2024-02-26T00:39:51;99127.53;;;6.77;100.00
64739;BME280;51175;51.186;0.276;2024-02-26T00:40:25;99132.78;;;6.77;100.00
64739;BME280;51175;51.186;0.276;2024-02-26T00:40:56;99131.44;;;6.80;100.00
64739;BME280;51175;51.186;0.276;2024-02-26T00:41:26;99160.56;;;6.78;100.00
64739;BME280;51175;51.186;0.276;2024-02-26T00:41:57;99133.56;;;6.78;100.00
64739;BME280;51175;51.186;0.276;2024-02-26T00:42:27;99126.19;;;6.80;100.00
64739;BME280;51175;51.186;0.276;2024-02-26T00:42:57;99138.53;;;6.79;100.00
64739;BME280;51175;51.186;0.276;2024-02-26T00:43:28;99135.13;;;6.79;100.00
64739;BME280;51175;51.186;0.276;2024-02-26T00:43:59;99141.94;;;6.80;100.00
64739;BME280;51175;51.186;0.276;2024-02-26T00:44:30;99134.88;;;6.80;100.00
64739;BME280;51175;51.186;0.276;2024-02-26T00:45:01;99147.19;;;6.80;100.00
64739;BME280;51175;51.186;0.276;2024-02-26T00:45:33;99153.22;;;6.80;100.00
64739;BME280;51175;51.186;0.276;2024-02-26T00:46:04;99153.22;;;6.80;100.00
64739;BME280;51175;51.186;0.276;2024-02-26T00:46:34;99140.09;;;6.80;100.00
64739;BME280;51175;51.186;0.276;2024-02-26T00:47:05;99136.41;;;6.81;100.00
64739;BME280;51175;51.186;0.276;2024-02-26T00:47:35;99148.78;;;6.81;100.00
64739;BME280;51175;51.186;0.276;2024-02-26T00:48:06;99146.16;;;6.81;100.00
64739;BME280;51175;51.186;0.276;2024-02-26T00:48:37;99149.03;;;6.79;100.00
64739;BME280;51175;51.186;0.276;2024-02-26T00:49:07;99140.63;;;6.82;100.00
64739;BME280;51175;51.186;0.276;2024-02-26T00:49:38;99152.97;;;6.82;100.00
64739;BME280;51175;51.186;0.276;2024-02-26T00:50:09;99150.34;;;6.82;100.00
64739;BME280;51175;51.186;0.276;2024-02-26T00:50:40;99144.28;;;6.81;100.00
64739;BME280;51175;51.186;0.276;2024-02-26T00:51:10;99150.34;;;6.82;100.00
64739;BME280;51175;51.186;0.276;2024-02-26T00:51:40;99166.34;;;6.80;100.00
64739;BME280;51175;51.186;0.276;2024-02-26T00:52:11;99155.06;;;6.80;100.00
64739;BME280;51175;51.186;0.276;2024-02-26T00:52:41;99152.16;;;6.81;100.00
64739;BME280;51175;51.186;0.276;2024-02-26T00:53:12;99158.22;;;6.82;100.00
64739;BME280;51175;51.186;0.276;2024-02-26T00:53:42;99158.22;;;6.82;100.00
64739;BME280;51175;51.186;0.276;2024-02-26T00:54:12;99156.13;;;6.84;100.00
64739;BME280;51175;51.186;0.276;2024-02-26T00:54:43;99183.41;;;6.83;100.00
64739;BME280;51175;51.186;0.276;2024-02-26T00:55:13;99160.03;;;6.81;100.00
64739;BME280;51175;51.186;0.276;2024-02-26T00:55:43;99155.31;;;6.83;100.00
64739;BME280;51175;51.186;0.276;2024-02-26T00:56:14;99159.00;;;6.82;100.00
64739;BME280;51175;51.186;0.276;2024-02-26T00:56:44;99149.28;;;6.83;100.00
64739;BME280;51175;51.186;0.276;2024-02-26T00:57:15;99162.41;;;6.83;100.00
64739;BME280;51175;51.186;0.276;2024-02-26T00:57:45;99171.34;;;6.82;100.00
64739;BME280;51175;51.186;0.276;2024-02-26T00:58:16;99157.94;;;6.83;100.00
64739;BME280;51175;51.186;0.276;2024-02-26T00:58:46;99152.69;;;6.83;100.00
64739;BME280;51175;51.186;0.276;2024-02-26T00:59:17;99166.88;;;6.82;100.00
64739;BME280;51175;51.186;0.276;2024-02-26T00:59:47;99163.47;;;6.82;100.00
64739;BME280;51175;51.186;0.276;2024-02-26T01:00:20;99175.03;;;6.81;100.00
64739;BME280;51175;51.186;0.276;2024-02-26T01:00:51;99155.84;;;6.80;100.00
64739;BME280;51175;51.186;0.276;2024-02-26T01:01:21;99164.53;;;6.81;100.00
64739;BME280;51175;51.186;0.276;2024-02-26T01:01:52;99164.25;;;6.82;100.00
64739;BME280;51175;51.186;0.276;2024-02-26T01:02:22;99156.38;;;6.82;100.00
64739;BME280;51175;51.186;0.276;2024-02-26T01:02:53;99172.41;;;6.81;100.00
64739;BME280;51175;51.186;0.276;2024-02-26T01:03:23;99166.09;;;6.82;100.00
64739;BME280;51175;51.186;0.276;2024-02-26T01:03:54;99163.47;;;6.82;100.00
64739;BME280;51175;51.186;0.276;2024-02-26T01:04:24;99176.59;;;6.82;100.00
64739;BME280;51175;51.186;0.276;2024-02-26T01:04:54;99181.84;;;6.82;100.00
64739;BME280;51175;51.186;0.276;2024-02-26T01:05:25;99181.84;;;6.82;100.00
64739;BME280;51175;51.186;0.276;2024-02-26T01:05:55;99175.53;;;6.83;100.00
64739;BME280;51175;51.186;0.276;2024-02-26T01:06:28;99171.88;;;6.84;100.00
64739;BME280;51175;51.186;0.276;2024-02-26T01:06:58;99171.06;;;6.83;100.00
64739;BME280;51175;51.186;0.276;2024-02-26T01:07:29;99174.75;;;6.82;100.00
64739;BME280;51175;51.186;0.276;2024-02-26T01:08:04;99188.91;;;6.81;100.00
64739;BME280;51175;51.186;0.276;2024-02-26T01:08:34;99165.03;;;6.83;100.00
64739;BME280;51175;51.186;0.276;2024-02-26T01:09:06;99170.28;;;6.83;100.00
64739;BME280;51175;51.186;0.276;2024-02-26T01:09:36;99194.97;;;6.82;100.00
64739;BME280;51175;51.186;0.276;2024-02-26T01:10:07;99162.41;;;6.83;100.00
64739;BME280;51175;51.186;0.276;2024-02-26T01:10:37;99188.66;;;6.83;100.00
64739;BME280;51175;51.186;0.276;2024-02-26T01:11:07;99183.41;;;6.83;100.00
64739;BME280;51175;51.186;0.276;2024-02-26T01:11:38;99182.38;;;6.84;100.00
64739;BME280;51175;51.186;0.276;2024-02-26T01:12:08;99170.28;;;6.83;100.00
64739;BME280;51175;51.186;0.276;2024-02-26T01:12:39;99184.47;;;6.82;100.00
64739;BME280;51175;51.186;0.276;2024-02-26T01:13:09;99181.84;;;6.82;100.00
64739;BME280;51175;51.186;0.276;2024-02-26T01:13:40;99180.00;;;6.82;100.00
64739;BME280;51175;51.186;0.276;2024-02-26T01:14:10;99193.88;;;6.83;100.00
64739;BME280;51175;51.186;0.276;2024-02-26T01:14:41;99176.59;;;6.82;100.00
64739;BME280;51175;51.186;0.276;2024-02-26T01:15:11;99188.91;;;6.81;100.00
64739;BME280;51175;51.186;0.276;2024-02-26T01:15:44;99184.47;;;6.82;100.00
64739;BME280;51175;51.186;0.276;2024-02-26T01:16:15;99172.13;;;6.82;100.00
64739;BME280;51175;51.186;0.276;2024-02-26T01:16:45;99179.47;;;6.80;100.00
64739;BME280;51175;51.186;0.276;2024-02-26T01:17:16;99175.03;;;6.81;100.00
64739;BME280;51175;51.186;0.276;2024-02-26T01:17:46;99166.34;;;6.80;100.00
64739;BME280;51175;51.186;0.276;2024-02-26T01:18:19;99167.41;;;6.79;100.00
64739;BME280;51175;51.186;0.276;2024-02-26T01:18:49;99178.69;;;6.80;100.00
64739;BME280;51175;51.186;0.276;2024-02-26T01:19:22;99194.44;;;6.80;100.00
64739;BME280;51175;51.186;0.276;2024-02-26T01:19:53;99182.91;;;6.81;100.00
64739;BME280;51175;51.186;0.276;2024-02-26T01:20:24;99201.78;;;6.78;100.00
64739;BME280;51175;51.186;0.276;2024-02-26T01:20:54;99192.88;;;6.79;100.00
64739;BME280;51175;51.186;0.276;2024-02-26T01:21:25;99203.34;;;6.79;100.00
64739;BME280;51175;51.186;0.276;2024-02-26T01:21:57;99185.78;;;6.79;100.00
64739;BME280;51175;51.186;0.276;2024-02-26T01:22:27;99197.03;;;6.80;100.00
64739;BME280;51175;51.186;0.276;2024-02-26T01:22:57;99190.75;;;6.81;100.00
64739;BME280;51175;51.186;0.276;2024-02-26T01:23:28;99186.56;;;6.80;100.00
64739;BME280;51175;51.186;0.276;2024-02-26T01:23:58;99188.16;;;6.81;100.00
64739;BME280;51175;51.186;0.276;2024-02-26T01:24:29;99174.50;;;6.79;100.00
64739;BME280;51175;51.186;0.276;2024-02-26T01:24:59;99186.81;;;6.78;100.00
64739;BME280;51175;51.186;0.276;2024-02-26T01:25:30;99188.69;;;6.78;100.00
64739;BME280;51175;51.186;0.276;2024-02-26T01:26:00;99191.81;;;6.80;100.00
64739;BME280;51175;51.186;0.276;2024-02-26T01:26:31;99186.81;;;6.78;100.00
64739;BME280;51175;51.186;0.276;2024-02-26T01:27:01;99191.31;;;6.78;100.00
64739;BME280;51175;51.186;0.276;2024-02-26T01:27:31;99199.16;;;6.78;100.00
64739;BME280;51175;51.186;0.276;2024-02-26T01:28:02;99196.53;;;6.78;100.00
64739;BME280;51175;51.186;0.276;2024-02-26T01:28:33;99210.69;;;6.77;100.00
64739;BME280;51175;51.186;0.276;2024-02-26T01:29:03;99196.81;;;6.76;100.00
64739;BME280;51175;51.186;0.276;2024-02-26T01:29:34;99199.72;;;6.75;100.00
64739;BME280;51175;51.186;0.276;2024-02-26T01:30:05;99214.38;;;6.76;100.00
64739;BME280;51175;51.186;0.276;2024-02-26T01:30:36;99210.19;;;6.75;100.00
64739;BME280;51175;51.186;0.276;2024-02-26T01:31:06;99202.06;;;6.76;100.00
64739;BME280;51175;51.186;0.276;2024-02-26T01:31:38;99208.06;;;6.77;100.00
64739;BME280;51175;51.186;0.276;2024-02-26T01:32:11;99207.31;;;6.76;100.00
64739;BME280;51175;51.186;0.276;2024-02-26T01:32:41;99216.75;;;6.77;100.00
64739;BME280;51175;51.186;0.276;2024-02-26T01:33:12;99208.88;;;6.77;100.00
64739;BME280;51175;51.186;0.276;2024-02-26T01:33:42;99210.69;;;6.77;100.00
64739;BME280;51175;51.186;0.276;2024-02-26T01:34:12;99208.06;;;6.77;100.00
64739;BME280;51175;51.186;0.276;2024-02-26T01:34:44;99217.28;;;6.74;100.00
64739;BME280;51175;51.186;0.276;2024-02-26T01:35:17;99225.16;;;6.74;100.00
64739;BME280;51175;51.186;0.276;2024-02-26T01:35:48;99205.97;;;6.74;100.00
64739;BME280;51175;51.186;0.276;2024-02-26T01:36:18;99185.78;;;6.74;100.00
64739;BME280;51175;51.186;0.276;2024-02-26T01:36:48;99211.75;;;6.76;100.00
64739;BME280;51175;51.186;0.276;2024-02-26T01:37:22;99205.97;;;6.74;100.00
64739;BME280;51175;51.186;0.276;2024-02-26T01:37:52;99212.03;;;6.74;100.00
64739;BME280;51175;51.186;0.276;2024-02-26T01:38:22;99207.84;;;6.73;100.00
64739;BME280;51175;51.186;0.276;2024-02-26T01:38:53;99201.78;;;6.73;100.00
64739;BME280;51175;51.186;0.276;2024-02-26T01:39:23;99210.72;;;6.72;100.00
64739;BME280;51175;51.186;0.276;2024-02-26T01:39:54;99206.25;;;6.72;100.00
64739;BME280;51175;51.186;0.276;2024-02-26T01:40:27;99208.38;;;6.70;100.00
64739;BME280;51175;51.186;0.276;2024-02-26T01:40:57;99205.47;;;6.72;100.00
64739;BME280;51175;51.186;0.276;2024-02-26T01:41:27;99215.97;;;6.72;100.00
64739;BME280;51175;51.186;0.276;2024-02-26T01:41:58;99199.44;;;6.71;100.00
64739;BME280;51175;51.186;0.276;2024-02-26T01:42:28;99209.66;;;6.73;100.00
64739;BME280;51175;51.186;0.276;2024-02-26T01:42:59;99218.59;;;6.72;100.00
64739;BME280;51175;51.186;0.276;2024-02-26T01:43:33;99218.59;;;6.72;100.00
64739;BME280;51175;51.186;0.276;2024-02-26T01:44:04;99224.88;;;6.70;100.00
64739;BME280;51175;51.186;0.276;2024-02-26T01:44:35;99242.22;;;6.72;100.00
64739;BME280;51175;51.186;0.276;2024-02-26T01:45:05;99235.13;;;6.72;100.00
64739;BME280;51175;51.186;0.276;2024-02-26T01:45:37;99240.38;;;6.72;100.00
64739;BME280;51175;51.186;0.276;2024-02-26T01:46:12;99225.94;;;6.69;100.00
64739;BME280;51175;51.186;0.276;2024-02-26T01:46:47;99239.84;;;6.70;100.00
64739;BME280;51175;51.186;0.276;2024-02-26T01:47:18;99238.81;;;6.71;100.00
64739;BME280;51175;51.186;0.276;2024-02-26T01:47:50;99241.16;;;6.73;100.00
64739;BME280;51175;51.186;0.276;2024-02-26T01:48:21;99228.03;;;6.73;100.00
64739;BME280;51175;51.186;0.276;2024-02-26T01:48:51;99234.59;;;6.70;100.00
64739;BME280;51175;51.186;0.276;2024-02-26T01:49:22;99244.03;;;6.71;100.00
64739;BME280;51175;51.186;0.276;2024-02-26T01:49:53;99238.81;;;6.71;100.00
64739;BME280;51175;51.186;0.276;2024-02-26T01:50:24;99243.00;;;6.72;100.00
64739;BME280;51175;51.186;0.276;2024-02-26T01:50:55;99226.47;;;6.72;100.00
64739;BME280;51175;51.186;0.276;2024-02-26T01:51:25;99246.41;;;6.73;100.00
64739;BME280;51175;51.186;0.276;2024-02-26T01:51:56;99233.28;;;6.73;100.00
64739;BME280;51175;51.186;0.276;2024-02-26T01:52:28;99262.16;;;6.73;100.00
64739;BME280;51175;51.186;0.276;2024-02-26T01:52:58;99241.97;;;6.73;100.00
64739;BME280;51175;51.186;0.276;2024-02-26T01:53:29;99246.41;;;6.73;100.00
64739;BME280;51175;51.186;0.276;2024-02-26T01:54:03;99256.91;;;6.73;100.00
64739;BME280;51175;51.186;0.276;2024-02-26T01:54:37;99254.53;;;6.71;100.00
64739;BME280;51175;51.186;0.276;2024-02-26T01:55:08;99242.22;;;6.72;100.00
64739;BME280;51175;51.186;0.276;2024-02-26T01:55:39;99250.09;;;6.72;100.00
64739;BME280;51175;51.186;0.276;2024-02-26T01:56:09;99262.16;;;6.73;100.00
64739;BME280;51175;51.186;0.276;2024-02-26T01:56:41;99256.38;;;6.70;100.00
64739;BME280;51175;51.186;0.276;2024-02-26T01:57:14;99259.78;;;6.71;100.00
64739;BME280;51175;51.186;0.276;2024-02-26T01:57:45;99266.59;;;6.72;100.00
64739;BME280;51175;51.186;0.276;2024-02-26T01:58:17;99260.59;;;6.72;100.00
64739;BME280;51175;51.186;0.276;2024-02-26T01:58:48;99249.28;;;6.71;100.00
64739;BME280;51175;51.186;0.276;2024-02-26T01:59:19;99254.53;;;6.71;100.00
64739;BME280;51175;51.186;0.276;2024-02-26T01:59:50;99268.47;;;6.72;100.00
64739;BME280;51175;51.186;0.276;2024-02-26T02:00:23;99280.53;;;6.73;100.00
64739;BME280;51175;51.186;0.276;2024-02-26T02:00:54;99265.56;;;6.73;100.00
64739;BME280;51175;51.186;0.276;2024-02-26T02:01:30;99266.59;;;6.72;100.00
64739;BME280;51175;51.186;0.276;2024-02-26T02:02:07;99259.78;;;6.71;100.00
64739;BME280;51175;51.186;0.276;2024-02-26T02:02:39;99256.09;;;6.72;100.00
64739;BME280;51175;51.186;0.276;2024-02-26T02:03:12;99263.22;;;6.72;100.00
64739;BME280;51175;51.186;0.276;2024-02-26T02:03:43;99267.66;;;6.71;100.00
64739;BME280;51175;51.186;0.276;2024-02-26T02:04:14;99256.09;;;6.72;100.00
64739;BME280;51175;51.186;0.276;2024-02-26T02:04:45;99263.97;;;6.72;100.00
64739;BME280;51175;51.186;0.276;2024-02-26T02:05:16;99269.22;;;6.72;100.00
64739;BME280;51175;51.186;0.276;2024-02-26T02:05:47;99264.25;;;6.70;100.00
64739;BME280;51175;51.186;0.276;2024-02-26T02:06:18;99275.28;;;6.73;100.00
64739;BME280;51175;51.186;0.276;2024-02-26T02:06:49;99265.03;;;6.71;100.00
64739;BME280;51175;51.186;0.276;2024-02-26T02:07:21;99259.25;;;6.69;100.00
64739;BME280;51175;51.186;0.276;2024-02-26T02:07:53;99273.19;;;6.69;100.00
64739;BME280;51175;51.186;0.276;2024-02-26T02:08:24;99276.84;;;6.68;100.00
64739;BME280;51175;51.186;0.276;2024-02-26T02:08:55;99244.56;;;6.68;100.00
64739;BME280;51175;51.186;0.276;2024-02-26T02:09:26;99281.84;;;6.70;100.00
64739;BME280;51175;51.186;0.276;2024-02-26T02:09:57;99283.66;;;6.69;100.00
64739;BME280;51175;51.186;0.276;2024-02-26T02:10:28;99251.38;;;6.69;100.00
64739;BME280;51175;51.186;0.276;2024-02-26T02:10:59;99275.00;;;6.69;100.00
64739;BME280;51175;51.186;0.276;2024-02-26T02:11:29;99276.84;;;6.68;100.00
64739;BME280;51175;51.186;0.276;2024-02-26T02:12:00;99281.31;;;6.68;100.00
64739;BME280;51175;51.186;0.276;2024-02-26T02:12:32;99274.75;;;6.70;100.00
64739;BME280;51175;51.186;0.276;2024-02-26T02:13:03;99248.75;;;6.69;100.00
64739;BME280;51175;51.186;0.276;2024-02-26T02:13:34;99281.31;;;6.68;100.00
64739;BME280;51175;51.186;0.276;2024-02-26T02:14:04;99304.94;;;6.68;100.00
64739;BME280;51175;51.186;0.276;2024-02-26T02:14:35;99267.41;;;6.67;100.00
64739;BME280;51175;51.186;0.276;2024-02-26T02:15:06;99288.38;;;6.67;100.00
64739;BME280;51175;51.186;0.276;2024-02-26T02:15:36;99284.72;;;6.68;100.00
64739;BME280;51175;51.186;0.276;2024-02-26T02:16:07;99286.28;;;6.69;100.00
64739;BME280;51175;51.186;0.276;2024-02-26T02:16:38;99283.94;;;6.68;100.00
64739;BME280;51175;51.186;0.276;2024-02-26T02:17:08;99284.72;;;6.68;100.00
64739;BME280;51175;51.186;0.276;2024-02-26T02:17:39;99282.59;;;6.70;100.00
64739;BME280;51175;51.186;0.276;2024-02-26T02:18:10;99282.09;;;6.68;100.00
64739;BME280;51175;51.186;0.276;2024-02-26T02:18:40;99281.84;;;6.70;100.00
64739;BME280;51175;51.186;0.276;2024-02-26T02:19:10;99280.78;;;6.71;100.00
64739;BME280;51175;51.186;0.276;2024-02-26T02:19:41;99288.66;;;6.71;100.00
64739;BME280;51175;51.186;0.276;2024-02-26T02:20:17;99270.56;;;6.69;100.00
64739;BME280;51175;51.186;0.276;2024-02-26T02:20:48;99294.97;;;6.70;100.00
64739;BME280;51175;51.186;0.276;2024-02-26T02:21:18;99287.34;;;6.68;100.00
64739;BME280;51175;51.186;0.276;2024-02-26T02:21:49;99287.09;;;6.70;100.00
64739;BME280;51175;51.186;0.276;2024-02-26T02:22:19;99300.22;;;6.70;100.00
64739;BME280;51175;51.186;0.276;2024-02-26T02:22:50;99293.91;;;6.71;100.00
64739;BME280;51175;51.186;0.276;2024-02-26T02:23:22;99288.13;;;6.69;100.00
64739;BME280;51175;51.186;0.276;2024-02-26T02:23:53;99300.75;;;6.67;100.00
64739;BME280;51175;51.186;0.276;2024-02-26T02:24:23;99296.25;;;6.67;100.00
64739;BME280;51175;51.186;0.276;2024-02-26T02:24:54;99295.50;;;6.67;100.00
64739;BME280;51175;51.186;0.276;2024-02-26T02:25:24;99301.25;;;6.69;100.00
64739;BME280;51175;51.186;0.276;2024-02-26T02:26:02;99297.31;;;6.66;100.00
64739;BME280;51175;51.186;0.276;2024-02-26T02:26:33;99292.59;;;6.68;100.00
64739;BME280;51175;51.186;0.276;2024-02-26T02:27:03;99298.88;;;6.67;100.00
64739;BME280;51175;51.186;0.276;2024-02-26T02:27:34;99301.25;;;6.69;100.00
64739;BME280;51175;51.186;0.276;2024-02-26T02:28:05;99316.97;;;6.69;100.00
64739;BME280;51175;51.186;0.276;2024-02-26T02:28:36;99308.34;;;6.68;100.00
64739;BME280;51175;51.186;0.276;2024-02-26T02:29:09;99311.22;;;6.67;100.00
64739;BME280;51175;51.186;0.276;2024-02-26T02:29:40;99301.50;;;6.67;100.00
64739;BME280;51175;51.186;0.276;2024-02-26T02:30:11;99303.09;;;6.68;100.00
64739;BME280;51175;51.186;0.276;2024-02-26T02:30:45;99301.50;;;6.67;100.00
64739;BME280;51175;51.186;0.276;2024-02-26T02:31:15;99310.44;;;6.66;100.00
64739;BME280;51175;51.186;0.276;2024-02-26T02:31:48;99309.63;;;6.66;100.00
64739;BME280;51175;51.186;0.276;2024-02-26T02:32:19;99326.97;;;6.67;100.00
64739;BME280;51175;51.186;0.276;2024-02-26T02:32:50;99326.19;;;6.66;100.00
64739;BME280;51175;51.186;0.276;2024-02-26T02:33:25;99335.06;;;6.65;100.00
64739;BME280;51175;51.186;0.276;2024-02-26T02:33:57;99327.22;;;6.65;100.00
64739;BME280;51175;51.186;0.276;2024-02-26T02:34:28;99342.94;;;6.65;100.00
64739;BME280;51175;51.186;0.276;2024-02-26T02:34:59;99322.22;;;6.64;100.00
64739;BME280;51175;51.186;0.276;2024-02-26T02:35:29;99331.44;;;6.66;100.00
64739;BME280;51175;51.186;0.276;2024-02-26T02:36:00;99318.31;;;6.66;100.00
64739;BME280;51175;51.186;0.276;2024-02-26T02:36:30;99326.19;;;6.66;100.00
64739;BME280;51175;51.186;0.276;2024-02-26T02:37:01;99334.84;;;6.67;100.00
64739;BME280;51175;51.186;0.276;2024-02-26T02:37:31;99341.91;;;6.66;100.00
64739;BME280;51175;51.186;0.276;2024-02-26T02:38:02;99343.75;;;6.66;100.00
64739;BME280;51175;51.186;0.276;2024-02-26T02:38:33;99333.25;;;6.66;100.00
64739;BME280;51175;51.186;0.276;2024-02-26T02:39:04;99332.22;;;6.67;100.00
64739;BME280;51175;51.186;0.276;2024-02-26T02:39:34;99315.69;;;6.66;100.00
64739;BME280;51175;51.186;0.276;2024-02-26T02:40:07;99338.50;;;6.66;100.00
64739;BME280;51175;51.186;0.276;2024-02-26T02:40:38;99314.88;;;6.66;100.00
64739;BME280;51175;51.186;0.276;2024-02-26T02:41:08;99331.44;;;6.66;100.00
64739;BME280;51175;51.186;0.276;2024-02-26T02:41:39;99341.13;;;6.66;100.00
64739;BME280;51175;51.186;0.276;2024-02-26T02:42:09;99331.69;;;6.65;100.00
64739;BME280;51175;51.186;0.276;2024-02-26T02:42:43;99329.06;;;6.65;100.00
64739;BME280;51175;51.186;0.276;2024-02-26T02:43:16;99317.50;;;6.66;100.00
64739;BME280;51175;51.186;0.276;2024-02-26T02:43:46;99343.75;;;6.66;100.00
64739;BME280;51175;51.186;0.276;2024-02-26T02:44:17;99335.06;;;6.65;100.00
64739;BME280;51175;51.186;0.276;2024-02-26T02:44:47;99337.97;;;6.64;100.00
64739;BME280;51175;51.186;0.276;2024-02-26T02:45:17;99335.06;;;6.65;100.00